Time;durP1;ratioP1;P1;durP2;ratioP2;P2;SDS_P1;SDS_P2;PMS_P1;PMS_P2;Temp;Humidity;BMP_temperature;BMP_pressure;BME280_temperature;BME280_humidity;BME280_pressure;Samples;Min_cycle;Max_cycle;Signal;HPM_P1;HPM_P2
2022/11/20 00:02:25;;;;;;;14.95;7.60;;;1.30;99.90;;;;;;5139506;27;20041;-68
2022/11/20 00:04:50;;;;;;;11.25;7.47;;;1.20;99.90;;;;;;5157209;27;20115;-68
2022/11/20 00:07:16;;;;;;;11.00;6.57;;;2.30;99.90;;;;;;5138690;27;20039;-68
2022/11/20 00:09:42;;;;;;;11.10;6.80;;;1.40;99.90;;;;;;5157132;27;20055;-68
2022/11/20 00:12:07;;;;;;;9.48;7.07;;;1.10;99.90;;;;;;5157033;27;20077;-68
2022/11/20 00:14:33;;;;;;;11.35;6.70;;;1.50;99.90;;;;;;5157138;27;20042;-68
2022/11/20 00:16:59;;;;;;;10.90;7.45;;;1.30;99.90;;;;;;5138798;27;20070;-68
2022/11/20 00:19:25;;;;;;;12.63;7.32;;;2.30;99.90;;;;;;5156990;27;20043;-68
2022/11/20 00:21:53;;;;;;;10.38;6.80;;;2.10;99.90;;;;;;5157012;27;20065;-68
2022/11/20 00:24:19;;;;;;;13.80;7.53;;;1.20;99.90;;;;;;5137146;27;20043;-68
2022/11/20 00:26:45;;;;;;;11.32;6.68;;;1.60;99.90;;;;;;5156261;27;20050;-68
2022/11/20 00:29:10;;;;;;;10.98;6.47;;;1.20;99.90;;;;;;5156661;27;20051;-68
2022/11/20 00:31:36;;;;;;;12.50;7.30;;;1.50;99.90;;;;;;5156748;27;20042;-68
2022/11/20 00:34:02;;;;;;;11.75;8.02;;;2.10;99.90;;;;;;5138653;27;20110;-68
2022/11/20 00:36:31;;;;;;;11.90;7.28;;;1.40;99.90;;;;;;5156527;27;20129;-68
2022/11/20 00:38:58;;;;;;;13.63;7.20;;;1.60;99.90;;;;;;5138157;27;20046;-68
2022/11/20 00:41:24;;;;;;;11.18;7.60;;;1.40;99.90;;;;;;5156571;27;20049;-68
2022/11/20 00:43:52;;;;;;;14.13;9.55;;;1.40;99.90;;;;;;5138392;27;20038;-68
2022/11/20 00:46:21;;;;;;;14.38;9.88;;;1.50;99.90;;;;;;5156225;27;20073;-68
2022/11/20 00:48:47;;;;;;;12.82;8.25;;;1.70;99.90;;;;;;5156649;27;20107;-68
2022/11/20 00:51:15;;;;;;;12.98;7.57;;;1.60;99.90;;;;;;5156369;27;20042;-68
2022/11/20 00:53:42;;;;;;;11.88;8.18;;;1.30;99.90;;;;;;5156253;27;20042;-68
2022/11/20 00:56:10;;;;;;;11.68;8.30;;;2.00;99.90;;;;;;5156260;27;20042;-68
2022/11/20 00:58:38;;;;;;;12.90;8.07;;;1.40;99.90;;;;;;5155730;27;20047;-68
2022/11/20 01:01:05;;;;;;;15.88;8.55;;;2.00;99.90;;;;;;5137726;27;20047;-68
2022/11/20 01:03:32;;;;;;;11.57;7.70;;;1.50;99.90;;;;;;5156124;27;20045;-68
2022/11/20 01:06:07;;;;;;;10.35;7.05;;;2.50;99.90;;;;;;5137637;27;20071;-68
2022/11/20 01:08:35;;;;;;;12.50;7.43;;;3.10;99.90;;;;;;5156049;27;20038;-68
2022/11/20 01:11:04;;;;;;;10.85;7.25;;;1.80;99.90;;;;;;5156023;27;20082;-68
2022/11/20 01:13:37;;;;;;;10.27;6.95;;;1.30;99.90;;;;;;5120469;27;20148;-68
2022/11/20 01:16:08;;;;;;;11.88;7.57;;;2.80;99.90;;;;;;5137945;27;20465;-68
2022/11/20 01:18:35;;;;;;;11.50;7.22;;;1.40;99.90;;;;;;5155957;27;20058;-68
2022/11/20 01:21:07;;;;;;;9.63;6.63;;;1.40;99.90;;;;;;5155759;27;20047;-68
2022/11/20 01:23:35;;;;;;;10.13;6.38;;;1.50;99.90;;;;;;5137782;27;20381;-68
2022/11/20 01:26:06;;;;;;;10.88;6.93;;;1.50;99.90;;;;;;5137570;27;20082;-68
2022/11/20 01:28:33;;;;;;;12.50;6.85;;;1.40;99.90;;;;;;5119801;27;20054;-68
2022/11/20 01:30:59;;;;;;;12.07;7.45;;;1.50;99.90;;;;;;5155682;27;20393;-68
2022/11/20 01:33:25;;;;;;;11.23;6.90;;;1.40;99.90;;;;;;5155580;27;20121;-68
2022/11/20 01:35:51;;;;;;;10.90;7.00;;;1.30;99.90;;;;;;5136900;27;20058;-68
2022/11/20 01:38:18;;;;;;;11.65;6.32;;;2.00;99.90;;;;;;5137603;27;20075;-68
2022/11/20 01:40:43;;;;;;;11.02;7.10;;;1.50;99.90;;;;;;5155377;27;20183;-68
2022/11/20 01:43:22;;;;;;;11.65;7.22;;;1.60;99.90;;;;;;5155807;27;20517;-68
2022/11/20 01:46:17;;;;;;;10.90;5.97;;;2.20;99.90;;;;;;5136855;27;20076;-68
2022/11/20 01:49:04;;;;;;;10.65;6.65;;;1.30;99.90;;;;;;5131497;27;20163;-68
2022/11/20 01:51:48;;;;;;;11.60;7.15;;;1.90;99.90;;;;;;5133793;27;20051;-68
2022/11/20 01:54:25;;;;;;;10.43;7.00;;;1.60;99.90;;;;;;5134950;27;20083;-69
2022/11/20 01:56:54;;;;;;;12.27;7.45;;;1.60;99.90;;;;;;5134029;27;20043;-69
2022/11/20 01:59:21;;;;;;;11.32;7.10;;;1.40;99.90;;;;;;5134174;27;20081;-68
2022/11/20 02:01:47;;;;;;;12.38;6.82;;;1.50;99.90;;;;;;5116205;28;20042;-68
2022/11/20 02:04:15;;;;;;;12.82;7.13;;;2.30;99.90;;;;;;5133290;27;20047;-69
2022/11/20 02:06:53;;;;;;;12.57;7.57;;;1.60;99.90;;;;;;5134489;28;20097;-68
2022/11/20 02:09:19;;;;;;;11.50;7.38;;;2.00;99.90;;;;;;5134700;28;20439;-68
2022/11/20 02:11:45;;;;;;;9.70;6.00;;;2.80;99.90;;;;;;5133312;28;20035;-68
2022/11/20 02:14:11;;;;;;;11.32;6.28;;;1.80;99.90;;;;;;5134570;28;20463;-69
2022/11/20 02:16:40;;;;;;;10.10;6.50;;;1.40;99.90;;;;;;5134577;27;20046;-68
2022/11/20 02:19:12;;;;;;;9.60;6.00;;;1.20;99.90;;;;;;5134365;28;20061;-68
2022/11/20 02:22:21;;;;;;;8.95;5.68;;;1.30;99.90;;;;;;5133368;28;20439;-69
2022/11/20 02:24:49;;;;;;;11.07;6.10;;;1.80;99.90;;;;;;5070599;28;20044;-69
2022/11/20 02:27:16;;;;;;;10.10;6.45;;;3.00;99.90;;;;;;5053709;28;20526;-68
2022/11/20 02:29:48;;;;;;;9.90;6.00;;;3.40;99.90;;;;;;5094021;28;20112;-69
2022/11/20 02:32:32;;;;;;;11.05;6.68;;;1.40;99.90;;;;;;5134247;27;20039;-68
2022/11/20 02:34:58;;;;;;;10.00;6.25;;;1.50;99.90;;;;;;5133120;28;20047;-68
2022/11/20 02:37:32;;;;;;;10.35;5.78;;;1.40;99.90;;;;;;5134283;28;20394;-68
2022/11/20 02:39:57;;;;;;;10.02;6.30;;;1.40;99.90;;;;;;5134190;28;20043;-69
2022/11/20 02:42:23;;;;;;;11.07;7.07;;;1.80;99.90;;;;;;5133459;28;20047;-69
2022/11/20 02:44:49;;;;;;;11.65;6.55;;;2.10;99.90;;;;;;5134168;28;20054;-69
2022/11/20 02:47:14;;;;;;;10.77;6.68;;;2.30;99.90;;;;;;5135112;27;20092;-68
2022/11/20 02:49:40;;;;;;;9.68;6.20;;;1.80;99.90;;;;;;5136975;27;20183;-69
2022/11/20 02:52:06;;;;;;;9.43;5.85;;;1.40;99.90;;;;;;5137962;27;20039;-69
2022/11/20 02:54:32;;;;;;;10.13;6.13;;;1.60;99.90;;;;;;5119550;27;20134;-68
2022/11/20 02:56:57;;;;;;;9.48;6.47;;;2.50;99.90;;;;;;5137524;27;20077;-69
2022/11/20 02:59:23;;;;;;;10.15;6.75;;;1.70;99.90;;;;;;5137736;27;20603;-68
2022/11/20 03:01:49;;;;;;;12.13;6.13;;;1.60;99.90;;;;;;5137971;27;20095;-68
2022/11/20 03:04:14;;;;;;;10.35;6.72;;;1.60;99.90;;;;;;5137751;27;20046;-68
2022/11/20 03:06:40;;;;;;;11.18;6.15;;;1.50;99.90;;;;;;5137391;27;20393;-68
2022/11/20 03:09:05;;;;;;;11.05;6.88;;;1.70;99.90;;;;;;5137578;27;20046;-68
2022/11/20 03:11:31;;;;;;;8.85;6.15;;;1.50;99.90;;;;;;5137944;27;20057;-69
2022/11/20 03:13:57;;;;;;;11.50;6.65;;;3.70;99.90;;;;;;5137564;27;20047;-68
2022/11/20 03:16:23;;;;;;;11.70;6.00;;;2.00;99.90;;;;;;5137777;27;20090;-68
2022/11/20 03:18:51;;;;;;;8.50;5.88;;;1.80;99.90;;;;;;5137479;27;20645;-69
2022/11/20 03:21:17;;;;;;;10.82;6.25;;;1.40;99.90;;;;;;5137358;27;20095;-69
2022/11/20 03:23:43;;;;;;;11.20;6.38;;;1.60;99.90;;;;;;5137287;27;20055;-69
2022/11/20 03:26:21;;;;;;;8.23;5.07;;;2.30;99.90;;;;;;5136252;27;20047;-68
2022/11/20 03:28:49;;;;;;;9.20;5.95;;;1.80;99.90;;;;;;5136696;27;20039;-69
2022/11/20 03:31:17;;;;;;;8.73;5.35;;;1.60;99.90;;;;;;5136945;27;20387;-68
2022/11/20 03:33:43;;;;;;;11.05;6.13;;;2.40;99.90;;;;;;5136148;27;20047;-69
2022/11/20 03:36:12;;;;;;;9.77;6.18;;;1.50;99.90;;;;;;5102126;27;20046;-69
2022/11/20 03:38:38;;;;;;;9.77;6.05;;;1.50;99.90;;;;;;5137037;27;20090;-68
2022/11/20 03:41:06;;;;;;;9.23;5.05;;;2.10;99.90;;;;;;5136948;27;20039;-68
2022/11/20 03:43:34;;;;;;;11.07;6.35;;;1.60;99.90;;;;;;5136653;27;20491;-68
2022/11/20 03:46:00;;;;;;;10.43;6.57;;;1.90;99.90;;;;;;5136893;27;20047;-68
2022/11/20 03:48:26;;;;;;;9.38;5.80;;;2.40;99.90;;;;;;5135557;27;20047;-68
2022/11/20 03:50:53;;;;;;;11.60;6.45;;;1.70;99.90;;;;;;5136853;27;20042;-69
2022/11/20 03:53:19;;;;;;;10.80;6.72;;;1.50;99.90;;;;;;5136794;27;20044;-69
2022/11/20 03:55:50;;;;;;;11.30;7.03;;;2.30;99.90;;;;;;5135775;27;20085;-69
2022/11/20 03:58:15;;;;;;;12.07;6.57;;;2.10;99.90;;;;;;5135986;27;20087;-69
2022/11/20 04:00:41;;;;;;;10.13;6.10;;;1.90;99.90;;;;;;5136584;27;20105;-69
2022/11/20 04:03:07;;;;;;;10.40;6.03;;;1.60;99.90;;;;;;5118270;27;20043;-69
2022/11/20 04:05:33;;;;;;;8.57;5.68;;;1.70;99.90;;;;;;5136367;27;20596;-69
2022/11/20 04:07:59;;;;;;;9.18;5.55;;;1.50;99.90;;;;;;5135550;27;20043;-68
2022/11/20 04:10:25;;;;;;;10.65;6.38;;;2.50;99.90;;;;;;5118335;27;20081;-69
2022/11/20 04:12:51;;;;;;;10.65;6.13;;;2.40;99.90;;;;;;5136358;27;20042;-68
2022/11/20 04:15:16;;;;;;;8.85;4.93;;;1.70;99.90;;;;;;5136359;27;20051;-69
2022/11/20 04:17:42;;;;;;;9.80;5.70;;;2.50;99.90;;;;;;5135141;27;20061;-69
2022/11/20 04:20:08;;;;;;;9.48;5.53;;;2.70;99.90;;;;;;5134997;27;20142;-69
2022/11/20 04:22:34;;;;;;;9.35;5.45;;;1.70;99.90;;;;;;5136128;27;20044;-69
2022/11/20 04:24:59;;;;;;;8.65;5.15;;;2.10;99.90;;;;;;5136148;27;20084;-69
2022/11/20 04:27:25;;;;;;;9.48;5.22;;;1.90;99.90;;;;;;5135607;27;20054;-69
2022/11/20 04:29:51;;;;;;;10.82;5.72;;;2.30;99.90;;;;;;5134918;27;20043;-68
2022/11/20 04:32:16;;;;;;;9.82;6.07;;;2.00;99.90;;;;;;5135014;27;20046;-69
2022/11/20 04:34:42;;;;;;;8.93;5.20;;;1.50;99.90;;;;;;5134996;27;20058;-68
2022/11/20 04:37:08;;;;;;;8.90;5.57;;;1.70;99.90;;;;;;5135018;27;20043;-69
2022/11/20 04:39:33;;;;;;;10.38;5.90;;;1.60;99.90;;;;;;5134816;27;20129;-69
2022/11/20 04:44:43;;;;;;;9.93;5.72;;;2.60;99.90;;;;;;5135271;27;20097;-69
2022/11/20 04:47:08;;;;;;;9.15;5.60;;;1.80;99.90;;;;;;5135405;27;20094;-69
2022/11/20 04:49:34;;;;;;;9.40;5.60;;;1.60;99.90;;;;;;5138165;27;20464;-69
2022/11/20 04:52:00;;;;;;;11.35;6.30;;;1.40;99.90;;;;;;5156905;27;20045;-69
2022/11/20 04:54:25;;;;;;;10.32;6.82;;;2.10;99.90;;;;;;5156335;27;20046;-68
2022/11/20 04:56:51;;;;;;;12.05;6.47;;;1.80;99.90;;;;;;5137768;27;20047;-69
2022/11/20 04:59:17;;;;;;;10.35;6.25;;;1.80;99.90;;;;;;5137468;27;20038;-69
2022/11/20 05:01:42;;;;;;;10.05;6.07;;;1.90;99.90;;;;;;5137733;27;20520;-69
2022/11/20 05:04:08;;;;;;;12.02;7.10;;;2.60;99.90;;;;;;5137979;27;20508;-69
2022/11/20 05:06:34;;;;;;;10.95;6.00;;;1.80;99.90;;;;;;5156086;27;20042;-69
2022/11/20 05:09:00;;;;;;;10.25;6.55;;;2.70;99.90;;;;;;5137153;27;20125;-69
2022/11/20 05:11:28;;;;;;;11.50;6.72;;;2.50;99.90;;;;;;5155983;27;20048;-69
2022/11/20 05:13:55;;;;;;;10.63;6.70;;;1.60;99.90;;;;;;5155587;27;20541;-69
2022/11/20 05:16:23;;;;;;;10.57;6.50;;;1.80;99.90;;;;;;5156425;27;20042;-69
2022/11/20 05:18:50;;;;;;;10.38;6.57;;;1.60;99.90;;;;;;5156425;27;20047;-69
2022/11/20 05:21:16;;;;;;;10.27;6.50;;;2.30;99.90;;;;;;5155723;27;20393;-69
2022/11/20 05:23:42;;;;;;;11.52;6.53;;;1.90;99.90;;;;;;5155715;27;20050;-69
2022/11/20 05:26:16;;;;;;;10.23;6.60;;;2.80;99.90;;;;;;5137942;27;20123;-69
2022/11/20 05:28:42;;;;;;;10.55;6.40;;;1.90;99.90;;;;;;5155178;27;20118;-69
2022/11/20 05:31:10;;;;;;;11.88;6.93;;;1.90;99.90;;;;;;5155646;27;20042;-69
2022/11/20 05:33:39;;;;;;;12.32;7.43;;;2.10;99.90;;;;;;5155238;27;20046;-69
2022/11/20 05:36:05;;;;;;;11.52;6.28;;;1.90;99.90;;;;;;5155658;27;20065;-68
2022/11/20 05:38:31;;;;;;;11.40;6.28;;;1.80;99.90;;;;;;5155535;27;20042;-68
2022/11/20 05:41:06;;;;;;;11.63;6.88;;;1.80;99.90;;;;;;5155053;27;20074;-69
2022/11/20 05:43:34;;;;;;;9.38;5.88;;;2.40;99.90;;;;;;5155476;27;20034;-69
2022/11/20 05:46:00;;;;;;;10.57;6.70;;;1.90;99.90;;;;;;5137300;27;20129;-69
2022/11/20 05:48:26;;;;;;;11.10;6.80;;;1.90;99.90;;;;;;5136466;27;20554;-69
2022/11/20 05:50:52;;;;;;;11.50;7.38;;;1.80;99.90;;;;;;5155309;27;20129;-69
2022/11/20 05:53:18;;;;;;;9.05;6.40;;;1.80;99.90;;;;;;5155413;27;20090;-69
2022/11/20 05:55:43;;;;;;;11.68;7.05;;;2.80;99.90;;;;;;5155331;27;20080;-69
2022/11/20 05:58:09;;;;;;;10.35;6.03;;;1.70;99.90;;;;;;5119096;27;20057;-69
2022/11/20 06:00:35;;;;;;;9.73;6.18;;;2.00;99.90;;;;;;5136819;27;20039;-68
2022/11/20 06:03:01;;;;;;;8.07;5.45;;;1.70;99.90;;;;;;5136586;27;20470;-69
2022/11/20 06:05:27;;;;;;;10.52;6.03;;;2.30;99.90;;;;;;5137046;27;20389;-69
2022/11/20 06:07:52;;;;;;;12.07;6.63;;;1.90;99.90;;;;;;5155149;27;20047;-69
2022/11/20 06:10:18;;;;;;;10.35;6.35;;;2.30;99.90;;;;;;5155089;27;20531;-69
2022/11/20 06:12:44;;;;;;;9.25;6.07;;;2.20;99.90;;;;;;5155540;27;20374;-69
2022/11/20 06:15:10;;;;;;;10.40;5.82;;;1.70;99.90;;;;;;5155044;27;20137;-69
2022/11/20 06:17:35;;;;;;;9.95;6.13;;;2.70;99.90;;;;;;5137034;27;20047;-69
2022/11/20 06:20:01;;;;;;;10.57;6.40;;;1.50;99.90;;;;;;5155424;27;20058;-69
2022/11/20 06:22:27;;;;;;;9.65;5.80;;;1.70;99.90;;;;;;5140487;27;20039;-69
2022/11/20 06:24:52;;;;;;;10.00;5.97;;;1.80;99.90;;;;;;5159244;27;20074;-69
2022/11/20 06:27:18;;;;;;;10.40;6.15;;;2.00;99.90;;;;;;5140364;27;20039;-69
2022/11/20 06:29:44;;;;;;;9.45;5.90;;;1.90;99.90;;;;;;5140877;27;20073;-69
2022/11/20 06:32:09;;;;;;;10.60;6.28;;;1.80;99.90;;;;;;5159135;27;20491;-68
2022/11/20 06:34:35;;;;;;;10.27;6.40;;;2.40;99.90;;;;;;5123412;27;20081;-68
2022/11/20 06:37:01;;;;;;;13.32;7.03;;;2.20;99.90;;;;;;5123664;27;20046;-68
2022/11/20 06:39:26;;;;;;;11.20;5.75;;;1.80;99.90;;;;;;5158716;27;20130;-68
2022/11/20 06:41:52;;;;;;;10.52;6.38;;;1.90;99.90;;;;;;5140643;27;20070;-69
2022/11/20 06:44:18;;;;;;;9.43;5.88;;;1.60;99.90;;;;;;5140372;27;20046;-69
2022/11/20 06:46:43;;;;;;;10.80;6.60;;;1.70;99.90;;;;;;5123509;27;20054;-69
2022/11/20 06:49:09;;;;;;;7.70;5.75;;;2.20;99.90;;;;;;5140201;27;20059;-69
2022/11/20 06:51:34;;;;;;;11.60;6.25;;;2.60;99.90;;;;;;5140488;27;20054;-69
2022/11/20 06:54:00;;;;;;;10.10;6.25;;;3.00;99.90;;;;;;5158705;27;20046;-69
2022/11/20 06:56:26;;;;;;;10.95;7.07;;;2.20;99.90;;;;;;5158662;27;20046;-69
2022/11/20 06:58:52;;;;;;;12.20;7.10;;;2.60;99.90;;;;;;5158217;27;20501;-69
2022/11/20 07:01:18;;;;;;;10.32;6.10;;;3.20;99.90;;;;;;5122852;27;20057;-69
2022/11/20 07:03:44;;;;;;;12.88;6.63;;;1.90;99.90;;;;;;5140192;27;20394;-69
2022/11/20 07:06:10;;;;;;;11.60;6.78;;;2.60;99.90;;;;;;5158495;27;20064;-69
2022/11/20 07:08:36;;;;;;;9.90;6.07;;;1.80;99.90;;;;;;5140173;27;20047;-69
2022/11/20 07:11:05;;;;;;;10.15;6.57;;;2.60;99.90;;;;;;5158414;27;20057;-69
2022/11/20 07:13:31;;;;;;;10.25;6.68;;;1.60;99.90;;;;;;5158343;27;20058;-69
2022/11/20 07:16:02;;;;;;;9.40;6.45;;;1.70;99.90;;;;;;5140152;27;20047;-69
2022/11/20 07:18:27;;;;;;;9.77;6.10;;;2.00;99.90;;;;;;5158020;27;20085;-69
2022/11/20 07:20:53;;;;;;;11.18;7.10;;;2.20;99.90;;;;;;5139542;27;20078;-69
2022/11/20 07:23:19;;;;;;;12.75;7.13;;;2.60;99.90;;;;;;5139760;27;20078;-69
2022/11/20 07:25:44;;;;;;;10.73;6.85;;;1.90;99.90;;;;;;5139510;27;20047;-69
2022/11/20 07:28:10;;;;;;;11.82;7.32;;;1.70;99.90;;;;;;5122078;27;20038;-69
2022/11/20 07:30:37;;;;;;;12.02;6.57;;;2.70;99.90;;;;;;5157952;27;20126;-69
2022/11/20 07:33:03;;;;;;;12.65;7.63;;;1.70;99.90;;;;;;5157235;27;20042;-69
2022/11/20 07:35:28;;;;;;;12.63;7.82;;;1.70;99.90;;;;;;5139534;27;20076;-69
2022/11/20 07:37:54;;;;;;;11.70;7.75;;;1.90;99.90;;;;;;5139457;27;20050;-69
2022/11/20 07:40:20;;;;;;;13.70;8.02;;;2.20;99.90;;;;;;5139865;27;20050;-68
2022/11/20 07:42:54;;;;;;;13.80;8.15;;;2.10;99.90;;;;;;5139126;27;20408;-68
2022/11/20 07:45:21;;;;;;;10.98;7.63;;;2.20;99.90;;;;;;5157490;27;20053;-68
2022/11/20 07:47:47;;;;;;;12.85;7.68;;;2.20;99.90;;;;;;5157369;27;20061;-69
2022/11/20 07:50:13;;;;;;;12.10;7.70;;;1.70;99.90;;;;;;5157597;27;20460;-69
2022/11/20 07:52:40;;;;;;;11.60;6.68;;;1.80;99.90;;;;;;5139103;27;20042;-69
2022/11/20 07:55:06;;;;;;;12.35;7.65;;;3.50;99.90;;;;;;5157457;27;20050;-69
2022/11/20 07:57:32;;;;;;;12.63;8.20;;;1.90;99.90;;;;;;5138480;27;20069;-69
2022/11/20 07:59:58;;;;;;;11.45;8.07;;;2.20;99.90;;;;;;5138961;27;20051;-69
2022/11/20 08:02:24;;;;;;;11.25;8.07;;;1.80;99.90;;;;;;5138884;27;20081;-69
2022/11/20 08:04:50;;;;;;;12.35;7.50;;;1.90;99.90;;;;;;5157765;27;20433;-69
2022/11/20 08:07:15;;;;;;;11.40;7.65;;;2.00;99.90;;;;;;5157272;27;20092;-69
2022/11/20 08:09:41;;;;;;;11.80;8.15;;;1.80;99.90;;;;;;5139461;27;20054;-69
2022/11/20 08:14:51;;;;;;;12.95;7.20;;;2.00;99.90;;;;;;5141606;27;20099;-69
2022/11/20 08:17:16;;;;;;;10.77;7.32;;;3.00;99.90;;;;;;5138725;27;20118;-69
2022/11/20 08:19:42;;;;;;;11.63;7.25;;;2.70;99.90;;;;;;5121583;27;20043;-69
2022/11/20 08:22:08;;;;;;;10.95;6.72;;;2.80;99.90;;;;;;5157382;27;20095;-69
2022/11/20 08:24:33;;;;;;;10.20;6.70;;;1.90;99.90;;;;;;5138478;27;20125;-69
2022/11/20 08:26:59;;;;;;;10.15;6.32;;;2.00;99.90;;;;;;5156951;27;20061;-69
2022/11/20 08:29:28;;;;;;;9.82;5.93;;;2.10;99.90;;;;;;5120861;27;20092;-69
2022/11/20 08:31:54;;;;;;;12.00;7.47;;;2.40;99.90;;;;;;5156439;27;20114;-69
2022/11/20 08:34:20;;;;;;;10.52;5.80;;;2.00;99.90;;;;;;5120474;27;20043;-69
2022/11/20 08:36:45;;;;;;;10.55;6.82;;;2.30;99.90;;;;;;5156772;27;20042;-69
2022/11/20 08:39:12;;;;;;;9.93;6.40;;;3.00;99.90;;;;;;5138242;27;20042;-69
2022/11/20 08:41:38;;;;;;;10.68;6.45;;;2.10;99.90;;;;;;5157310;27;20069;-70
2022/11/20 08:44:06;;;;;;;10.35;5.97;;;2.80;99.90;;;;;;5143786;27;20478;-70
2022/11/20 08:46:40;;;;;;;11.45;6.68;;;2.00;99.90;;;;;;5145054;27;20048;-71
2022/11/20 08:49:11;;;;;;;10.65;6.60;;;2.70;99.90;;;;;;5122399;27;20176;-69
2022/11/20 08:51:38;;;;;;;8.43;5.32;;;2.00;99.90;;;;;;5128442;27;20051;-69
2022/11/20 08:54:05;;;;;;;8.80;5.97;;;2.10;99.90;;;;;;5146035;27;20045;-69
2022/11/20 08:56:30;;;;;;;11.23;6.50;;;1.90;99.90;;;;;;5127886;27;20413;-69
2022/11/20 08:58:56;;;;;;;10.25;5.65;;;2.10;99.90;;;;;;5143747;27;20091;-70
2022/11/20 09:01:23;;;;;;;11.68;6.82;;;2.60;99.90;;;;;;5146193;27;20389;-69
2022/11/20 09:03:49;;;;;;;10.65;6.40;;;2.80;99.90;;;;;;5145743;27;20100;-69
2022/11/20 09:06:15;;;;;;;10.50;5.80;;;2.30;99.90;;;;;;5144284;27;20449;-69
2022/11/20 09:08:41;;;;;;;8.88;6.18;;;3.00;99.90;;;;;;5146242;27;20035;-69
2022/11/20 09:11:07;;;;;;;10.32;6.32;;;2.00;99.90;;;;;;5110000;27;20088;-69
2022/11/20 09:13:34;;;;;;;8.65;5.30;;;2.80;99.90;;;;;;5144465;27;20417;-69
2022/11/20 09:16:10;;;;;;;7.93;5.30;;;1.90;99.90;;;;;;5144221;27;20436;-68
2022/11/20 09:18:37;;;;;;;9.23;5.55;;;1.80;99.90;;;;;;5144140;27;20043;-69
2022/11/20 09:21:05;;;;;;;8.40;5.32;;;3.00;99.90;;;;;;5145685;27;20118;-69
2022/11/20 09:23:34;;;;;;;7.60;5.40;;;1.80;99.90;;;;;;5145741;27;20446;-69
2022/11/20 09:26:08;;;;;;;8.80;5.35;;;1.80;99.90;;;;;;5127433;27;20126;-70
2022/11/20 09:28:34;;;;;;;9.43;5.30;;;2.00;99.90;;;;;;5145675;27;20047;-69
2022/11/20 09:31:00;;;;;;;8.32;5.18;;;1.90;99.90;;;;;;5151341;27;20046;-70
2022/11/20 09:33:26;;;;;;;8.90;5.47;;;2.20;99.90;;;;;;5145278;27;20107;-71
2022/11/20 09:35:52;;;;;;;10.38;6.35;;;2.00;99.90;;;;;;5145581;27;20492;-77
2022/11/20 09:38:18;;;;;;;7.75;5.70;;;2.10;99.90;;;;;;5124371;27;20129;-71
2022/11/20 09:40:56;;;;;;;13.30;6.60;;;2.50;99.90;;;;;;5126530;27;20122;-69
2022/11/20 09:43:21;;;;;;;9.85;5.85;;;2.70;99.90;;;;;;5143831;27;20039;-68
2022/11/20 09:46:22;;;;;;;9.00;5.35;;;2.30;99.90;;;;;;5126339;27;20039;-69
2022/11/20 09:49:09;;;;;;;10.15;5.82;;;2.10;99.90;;;;;;5143842;27;20042;-71
2022/11/20 09:51:59;;;;;;;9.52;5.45;;;2.10;99.90;;;;;;5145714;27;20095;-70
2022/11/20 09:54:38;;;;;;;8.18;5.18;;;2.10;99.90;;;;;;5144272;27;20046;-70
2022/11/20 09:57:20;;;;;;;9.88;6.22;;;2.10;99.90;;;;;;5125501;27;20054;-70
2022/11/20 09:59:52;;;;;;;8.52;5.40;;;2.20;99.90;;;;;;5109825;27;20050;-70
2022/11/20 10:02:24;;;;;;;10.13;6.13;;;2.10;99.90;;;;;;5127347;27;20039;-71
2022/11/20 10:05:13;;;;;;;11.27;6.80;;;2.30;99.90;;;;;;5108124;27;20049;-70
2022/11/20 10:07:49;;;;;;;11.25;6.18;;;2.30;99.90;;;;;;5126586;27;20131;-69
2022/11/20 10:10:41;;;;;;;11.18;6.35;;;2.80;99.90;;;;;;5126916;27;20050;-69
2022/11/20 10:13:25;;;;;;;10.52;7.82;;;2.20;99.90;;;;;;5125839;27;20471;-69
2022/11/20 10:15:51;;;;;;;25.00;22.15;;;2.30;99.90;;;;;;5144891;27;20143;-69
2022/11/20 10:18:20;;;;;;;9.50;6.40;;;2.50;99.90;;;;;;5124943;27;20080;-70
2022/11/20 10:20:48;;;;;;;26.23;19.90;;;2.40;99.90;;;;;;5126362;27;20057;-69
2022/11/20 10:23:43;;;;;;;8.82;6.18;;;3.60;99.90;;;;;;5144868;27;20043;-70
2022/11/20 10:26:25;;;;;;;9.60;5.75;;;2.40;99.90;;;;;;5132748;27;20042;-70
2022/11/20 10:29:01;;;;;;;11.48;6.28;;;2.20;99.90;;;;;;5144341;27;20043;-70
2022/11/20 10:31:36;;;;;;;11.52;6.78;;;3.20;99.90;;;;;;5125920;27;20471;-70
2022/11/20 10:34:40;;;;;;;10.20;6.15;;;2.90;99.90;;;;;;5142830;27;20578;-69
2022/11/20 10:37:11;;;;;;;;;;;2.70;99.90;;;;;;5140231;27;20066;-69
2022/11/20 10:39:45;;;;;;;12.80;9.38;;;2.60;99.90;;;;;;5124566;27;19919;-70
2022/11/20 10:42:16;;;;;;;11.73;8.25;;;2.50;99.90;;;;;;5125011;27;20125;-70
2022/11/20 10:45:01;;;;;;;17.45;12.35;;;2.60;99.90;;;;;;5135966;27;20047;-70
2022/11/20 10:47:30;;;;;;;15.70;10.10;;;3.30;99.90;;;;;;5142490;27;20123;-69
2022/11/20 10:50:01;;;;;;;10.82;7.60;;;2.90;99.90;;;;;;5124187;27;20433;-70
2022/11/20 10:52:39;;;;;;;11.20;8.48;;;3.60;99.90;;;;;;5142985;27;20143;-70
2022/11/20 10:55:18;;;;;;;10.68;8.02;;;2.70;99.90;;;;;;5123182;27;20047;-70
2022/11/20 10:58:14;;;;;;;9.63;6.95;;;2.60;99.90;;;;;;5123614;27;20490;-70
2022/11/20 11:00:40;;;;;;;8.80;5.70;;;2.60;99.90;;;;;;5123685;27;20045;-70
2022/11/20 11:03:26;;;;;;;11.63;8.10;;;3.50;99.90;;;;;;5124786;27;20039;-70
2022/11/20 11:06:10;;;;;;;11.70;7.88;;;2.50;99.90;;;;;;5141062;27;20486;-70
2022/11/20 11:08:39;;;;;;;19.05;17.25;;;3.10;99.90;;;;;;5146950;27;20065;-70
2022/11/20 11:11:25;;;;;;;15.93;14.30;;;3.10;99.90;;;;;;5127934;27;20035;-70
2022/11/20 11:13:51;;;;;;;13.10;11.45;;;2.70;99.90;;;;;;5146598;27;20057;-70
2022/11/20 11:16:25;;;;;;;10.35;8.25;;;2.80;99.90;;;;;;5145649;27;20032;-70
2022/11/20 11:18:51;;;;;;;9.13;7.15;;;3.00;99.90;;;;;;5111149;27;20058;-70
2022/11/20 11:21:25;;;;;;;9.77;7.53;;;3.60;99.90;;;;;;5126335;27;20122;-70
2022/11/20 11:24:00;;;;;;;8.85;5.72;;;3.00;99.90;;;;;;5135615;27;20047;-70
2022/11/20 11:26:27;;;;;;;7.68;5.22;;;3.30;99.90;;;;;;5118362;27;20043;-70
2022/11/20 11:29:00;;;;;;;8.93;5.70;;;3.60;99.90;;;;;;5135585;27;20047;-70
2022/11/20 11:31:28;;;;;;;7.50;4.75;;;3.20;99.90;;;;;;5136813;27;20039;-70
2022/11/20 11:34:12;;;;;;;7.13;5.07;;;3.00;99.90;;;;;;5101872;27;20086;-69
2022/11/20 11:36:38;;;;;;;8.00;5.20;;;3.70;99.90;;;;;;5118681;27;20082;-70
2022/11/20 11:39:10;;;;;;;8.60;6.55;;;3.40;99.90;;;;;;5118549;27;20046;-69
2022/11/20 11:41:36;;;;;;;11.40;7.37;;;3.80;99.90;;;;;;5118709;27;20057;-69
2022/11/20 11:47:23;;;;;;;7.55;5.65;;;3.00;99.90;;;;;;5128636;27;20082;-70
2022/11/20 11:50:00;;;;;;;7.95;5.20;;;3.20;99.90;;;;;;5082825;28;20051;-70
2022/11/20 11:52:26;;;;;;;6.28;4.63;;;3.80;99.90;;;;;;5096664;28;20086;-69
2022/11/20 11:54:59;;;;;;;7.72;5.85;;;3.10;99.90;;;;;;5105019;28;20136;-70
2022/11/20 11:57:48;;;;;;;8.45;6.03;;;3.40;99.90;;;;;;5105958;28;20044;-70
2022/11/20 12:00:17;;;;;;;8.10;5.65;;;3.20;99.90;;;;;;5102423;28;20093;-69
2022/11/20 12:02:48;;;;;;;7.28;5.35;;;3.60;99.90;;;;;;5085339;28;20051;-70
2022/11/20 12:05:29;;;;;;;9.30;6.13;;;3.40;99.90;;;;;;5103459;28;20092;-71
2022/11/20 12:08:15;;;;;;;8.13;5.82;;;3.00;99.90;;;;;;5104604;28;20053;-68
2022/11/20 12:11:02;;;;;;;10.45;6.57;;;3.20;99.90;;;;;;5088813;28;20050;-68
2022/11/20 12:13:52;;;;;;;8.50;5.97;;;2.90;99.90;;;;;;5114134;28;20055;-68
2022/11/20 12:16:19;;;;;;;10.45;6.45;;;3.20;99.90;;;;;;5102329;28;20093;-67
2022/11/20 12:18:49;;;;;;;7.68;4.97;;;3.10;99.90;;;;;;5099404;28;20054;-68
2022/11/20 12:21:24;;;;;;;9.75;6.15;;;3.10;99.90;;;;;;5100883;28;20043;-68
2022/11/20 12:23:49;;;;;;;8.15;5.60;;;3.30;99.90;;;;;;5102162;28;20051;-68
2022/11/20 12:26:37;;;;;;;9.10;5.28;;;3.70;99.90;;;;;;5100278;28;20054;-68
2022/11/20 12:29:12;;;;;;;7.50;4.78;;;3.40;99.90;;;;;;5098036;28;20082;-68
2022/11/20 12:32:22;;;;;;;16.42;14.10;;;3.30;99.90;;;;;;5101111;28;20566;-68
2022/11/20 12:35:13;;;;;;;9.77;8.23;;;3.40;99.90;;;;;;5084933;28;20391;-68
2022/11/20 12:38:04;;;;;;;10.98;8.75;;;3.40;99.90;;;;;;5109574;28;20051;-68
2022/11/20 12:40:51;;;;;;;7.78;4.97;;;3.30;99.90;;;;;;5101022;28;20119;-69
2022/11/20 12:46:20;;;;;;;7.82;5.07;;;4.20;99.90;;;;;;5089264;28;20051;-69
2022/11/20 12:49:14;;;;;;;6.57;4.57;;;3.50;99.90;;;;;;5124302;27;20470;-69
2022/11/20 12:52:02;;;;;;;7.55;5.63;;;3.40;99.90;;;;;;5142323;27;20080;-69
2022/11/20 12:54:47;;;;;;;6.13;4.43;;;3.50;99.90;;;;;;5123429;27;20070;-69
2022/11/20 12:57:18;;;;;;;6.18;4.75;;;4.60;99.90;;;;;;5123940;27;20049;-69
2022/11/20 13:00:07;;;;;;;5.55;3.85;;;3.60;99.90;;;;;;5106084;27;20180;-69
2022/11/20 13:02:51;;;;;;;6.28;3.88;;;3.60;99.90;;;;;;5142228;27;20042;-69
2022/11/20 13:05:30;;;;;;;11.40;6.50;;;4.10;99.90;;;;;;5122721;27;20051;-70
2022/11/20 13:07:57;;;;;;;5.50;4.25;;;3.70;99.90;;;;;;5104551;27;20513;-70
2022/11/20 13:10:54;;;;;;;7.70;4.18;;;3.90;99.90;;;;;;5105431;27;20046;-70
2022/11/20 13:13:26;;;;;;;6.90;5.50;;;3.60;99.90;;;;;;5141270;27;20039;-70
2022/11/20 13:16:06;;;;;;;7.70;6.00;;;3.70;99.90;;;;;;5139699;27;20099;-70
2022/11/20 13:18:42;;;;;;;6.72;3.10;;;3.70;99.90;;;;;;5142117;27;20045;-69